Time;durP1;ratioP1;P1;durP2;ratioP2;P2;SDS_P1;SDS_P2;PMS_P1;PMS_P2;Temp;Humidity;BMP_temperature;BMP_pressure;BME280_temperature;BME280_humidity;BME280_pressure;Samples;Min_cycle;Max_cycle;Signal;HPM_P1;HPM_P2
2021/08/25 00:02:25;;;;;;;0.50;0.40;;;12.50;99.90;;;;;;4999094;28;20227;-83
2021/08/25 00:04:51;;;;;;;0.50;0.40;;;12.50;99.90;;;;;;4998835;28;20199;-82
2021/08/25 00:07:18;;;;;;;0.50;0.40;;;12.40;99.90;;;;;;4998773;28;20693;-84
2021/08/25 00:09:45;;;;;;;0.50;0.40;;;12.40;99.90;;;;;;4998715;28;20210;-83
2021/08/25 00:12:12;;;;;;;0.50;0.40;;;12.40;99.90;;;;;;4998301;28;20225;-83
2021/08/25 00:14:41;;;;;;;0.50;0.40;;;12.40;99.90;;;;;;4998108;28;20205;-83
2021/08/25 00:17:11;;;;;;;0.50;0.40;;;12.30;99.90;;;;;;4998521;28;20197;-80
2021/08/25 00:19:38;;;;;;;0.50;0.40;;;12.30;99.90;;;;;;4998668;28;20216;-82
2021/08/25 00:22:05;;;;;;;0.50;0.40;;;12.30;99.90;;;;;;4998549;28;20224;-84
2021/08/25 00:24:32;;;;;;;1.05;0.95;;;12.30;99.90;;;;;;4998572;28;20212;-83
2021/08/25 00:26:59;;;;;;;0.50;0.40;;;12.30;99.90;;;;;;4998410;28;20629;-83
2021/08/25 00:29:26;;;;;;;0.50;0.40;;;12.30;99.90;;;;;;4998677;28;20200;-84
2021/08/25 00:31:52;;;;;;;0.50;0.40;;;12.20;99.90;;;;;;4997821;28;20221;-83
2021/08/25 00:34:20;;;;;;;0.50;0.40;;;12.30;99.90;;;;;;4998587;28;20202;-82
2021/08/25 00:36:47;;;;;;;0.50;0.40;;;12.30;99.90;;;;;;4998336;28;20199;-83
2021/08/25 00:39:14;;;;;;;0.50;0.40;;;12.30;99.90;;;;;;4997975;28;20544;-83
2021/08/25 00:41:41;;;;;;;0.50;0.40;;;12.20;99.90;;;;;;4997718;28;20223;-82
2021/08/25 00:44:07;;;;;;;0.50;0.40;;;12.20;99.90;;;;;;4998163;28;20204;-84
2021/08/25 00:46:37;;;;;;;0.50;0.40;;;12.30;99.90;;;;;;4998064;28;20736;-84
2021/08/25 00:49:04;;;;;;;0.50;0.40;;;12.30;99.90;;;;;;4998287;28;20615;-83
2021/08/25 00:51:32;;;;;;;0.50;0.40;;;12.30;99.90;;;;;;4998372;28;20220;-83
2021/08/25 00:54:01;;;;;;;0.50;0.40;;;12.30;99.90;;;;;;4998001;28;20216;-83
2021/08/25 00:56:27;;;;;;;0.50;0.40;;;12.30;99.90;;;;;;4997909;28;20206;-83
2021/08/25 00:58:55;;;;;;;0.50;0.40;;;12.30;99.90;;;;;;4997908;28;20209;-84
2021/08/25 01:01:38;;;;;;;0.50;0.40;;;12.20;99.90;;;;;;4997243;28;20253;-82
2021/08/25 01:04:09;;;;;;;0.50;0.40;;;12.20;99.90;;;;;;4997562;28;20664;-83
2021/08/25 01:06:38;;;;;;;0.50;0.40;;;12.20;99.90;;;;;;4997703;28;20227;-82
2021/08/25 01:09:05;;;;;;;2.80;2.70;;;12.20;99.90;;;;;;4997471;28;20695;-83
2021/08/25 01:11:33;;;;;;;0.50;0.40;;;12.20;99.90;;;;;;4996888;28;20219;-83
2021/08/25 01:14:00;;;;;;;0.50;0.40;;;12.10;99.90;;;;;;4998254;28;20205;-82
2021/08/25 01:16:28;;;;;;;5.25;4.78;;;12.10;99.90;;;;;;4998171;28;20209;-82
2021/08/25 01:18:56;;;;;;;0.50;0.40;;;12.00;99.90;;;;;;4997914;28;20200;-81
2021/08/25 01:21:23;;;;;;;0.50;0.40;;;11.90;99.90;;;;;;4997587;28;20226;-82
2021/08/25 01:23:52;;;;;;;0.50;0.40;;;11.90;99.90;;;;;;4997452;28;20198;-81
2021/08/25 01:26:19;;;;;;;0.50;0.40;;;11.80;99.90;;;;;;4997996;28;20215;-82
2021/08/25 01:28:50;;;;;;;0.50;0.40;;;11.80;99.90;;;;;;4998442;28;20246;-83
2021/08/25 01:31:20;;;;;;;0.50;0.40;;;11.80;99.90;;;;;;4998200;28;20215;-82
2021/08/25 01:33:47;;;;;;;0.50;0.40;;;11.80;99.90;;;;;;4998475;28;20201;-82
2021/08/25 01:36:15;;;;;;;0.50;0.40;;;11.80;99.90;;;;;;4998321;28;20249;-82
2021/08/25 01:38:50;;;;;;;0.50;0.40;;;11.70;99.90;;;;;;4997863;28;20197;-82
2021/08/25 01:41:19;;;;;;;0.50;0.40;;;11.70;99.90;;;;;;4998038;28;20219;-82
2021/08/25 01:43:46;;;;;;;0.50;0.40;;;11.60;99.90;;;;;;4998229;28;20206;-82
2021/08/25 01:46:23;;;;;;;0.50;0.40;;;11.60;99.90;;;;;;4998354;28;20272;-82
2021/08/25 01:48:50;;;;;;;0.50;0.40;;;11.70;99.90;;;;;;4998150;28;20208;-82
2021/08/25 01:51:16;;;;;;;0.50;0.40;;;11.70;99.90;;;;;;4998084;28;20243;-82
2021/08/25 01:53:43;;;;;;;0.50;0.40;;;11.70;99.90;;;;;;4998135;28;20211;-82
2021/08/25 01:56:10;;;;;;;0.50;0.40;;;11.80;99.90;;;;;;4997591;28;20216;-81
2021/08/25 01:58:38;;;;;;;0.50;0.40;;;11.80;99.90;;;;;;4997747;28;20199;-82
2021/08/25 02:01:04;;;;;;;0.50;0.40;;;11.70;99.90;;;;;;4997638;28;20242;-81
2021/08/25 02:03:32;;;;;;;0.50;0.40;;;11.70;99.90;;;;;;4997698;28;20205;-82
2021/08/25 02:05:59;;;;;;;0.50;0.40;;;11.60;99.90;;;;;;4997490;28;20205;-82
2021/08/25 02:08:26;;;;;;;0.50;0.40;;;11.50;99.90;;;;;;4997483;28;20218;-82
2021/08/25 02:10:53;;;;;;;0.50;0.40;;;11.50;99.90;;;;;;4997481;28;20667;-82
2021/08/25 02:13:19;;;;;;;0.50;0.40;;;11.50;99.90;;;;;;4997730;28;20203;-82
2021/08/25 02:15:46;;;;;;;0.50;0.40;;;11.40;99.90;;;;;;4997996;28;20198;-81
2021/08/25 02:18:13;;;;;;;0.50;0.40;;;11.30;99.90;;;;;;4998058;28;20194;-82
2021/08/25 02:20:41;;;;;;;0.50;0.40;;;11.30;99.90;;;;;;4997516;28;20201;-83
2021/08/25 02:23:08;;;;;;;0.50;0.40;;;11.30;99.90;;;;;;4998232;28;20218;-81
2021/08/25 02:25:35;;;;;;;0.50;0.40;;;11.20;99.90;;;;;;5004652;28;20199;-81
2021/08/25 02:28:01;;;;;;;0.50;0.40;;;11.20;99.90;;;;;;5000021;28;20661;-82
2021/08/25 02:30:28;;;;;;;0.50;0.40;;;11.20;99.90;;;;;;4995642;28;20198;-83
2021/08/25 02:32:55;;;;;;;0.50;0.40;;;11.20;99.90;;;;;;4996572;28;20228;-83
2021/08/25 02:35:22;;;;;;;0.50;0.40;;;11.20;99.90;;;;;;4995923;28;20199;-84
2021/08/25 02:37:50;;;;;;;0.50;0.40;;;11.20;99.90;;;;;;4996171;28;20200;-83
2021/08/25 02:40:17;;;;;;;0.50;0.40;;;11.20;99.90;;;;;;4995320;28;20198;-82
2021/08/25 02:42:44;;;;;;;0.50;0.40;;;11.30;99.90;;;;;;4996210;28;20755;-82
2021/08/25 02:45:11;;;;;;;0.50;0.40;;;11.20;99.90;;;;;;4996622;28;20666;-83
2021/08/25 02:47:38;;;;;;;0.50;0.40;;;11.20;99.90;;;;;;4996161;28;20214;-83
2021/08/25 02:50:07;;;;;;;0.50;0.40;;;11.20;99.90;;;;;;4995617;28;20195;-81
2021/08/25 02:52:33;;;;;;;0.50;0.40;;;11.10;99.90;;;;;;4995901;28;20286;-85
2021/08/25 02:55:02;;;;;;;0.50;0.40;;;11.10;99.90;;;;;;4995298;28;20607;-82
2021/08/25 02:57:29;;;;;;;0.50;0.40;;;11.10;99.90;;;;;;4995976;28;20198;-82
2021/08/25 02:59:55;;;;;;;0.50;0.40;;;11.10;99.90;;;;;;4995866;28;20199;-83
2021/08/25 03:02:22;;;;;;;0.50;0.40;;;11.10;99.90;;;;;;4995595;28;20228;-82
2021/08/25 03:04:49;;;;;;;0.50;0.40;;;11.00;99.90;;;;;;4995051;28;20197;-83
2021/08/25 03:07:16;;;;;;;0.50;0.40;;;11.00;99.90;;;;;;4995524;28;20225;-82
2021/08/25 03:09:42;;;;;;;0.50;0.40;;;11.00;99.90;;;;;;4995585;28;20198;-83
2021/08/25 03:12:11;;;;;;;0.50;0.40;;;11.00;99.90;;;;;;4995331;28;20223;-82
2021/08/25 03:14:37;;;;;;;0.50;0.40;;;11.00;99.90;;;;;;4995550;28;20209;-82
2021/08/25 03:17:04;;;;;;;0.50;0.47;;;11.00;99.90;;;;;;4997309;28;20193;-83
2021/08/25 03:19:31;;;;;;;0.50;0.40;;;11.00;99.90;;;;;;4999559;28;20208;-82
2021/08/25 03:21:58;;;;;;;0.50;0.40;;;11.00;99.90;;;;;;4999277;28;20221;-83
2021/08/25 03:24:25;;;;;;;0.50;0.40;;;10.90;99.90;;;;;;4999176;28;20228;-83
2021/08/25 03:26:51;;;;;;;0.50;0.40;;;10.90;99.90;;;;;;4999294;28;20194;-83
2021/08/25 03:29:20;;;;;;;0.50;0.40;;;10.90;99.90;;;;;;4999161;28;20218;-83
2021/08/25 03:31:46;;;;;;;0.50;0.40;;;10.90;99.90;;;;;;4999215;28;20703;-79
2021/08/25 03:34:13;;;;;;;0.50;0.40;;;10.90;99.90;;;;;;4999554;28;20290;-84
2021/08/25 03:36:40;;;;;;;0.50;0.40;;;10.80;99.90;;;;;;4999219;28;20197;-82
2021/08/25 03:39:07;;;;;;;0.50;0.40;;;10.80;99.90;;;;;;4999885;28;20201;-82
2021/08/25 03:41:33;;;;;;;0.50;0.40;;;10.80;99.90;;;;;;4998741;28;20223;-83
2021/08/25 03:44:01;;;;;;;0.50;0.40;;;10.80;99.90;;;;;;5000599;28;20198;-82
2021/08/25 03:46:29;;;;;;;0.50;0.40;;;10.80;99.90;;;;;;4999427;28;20202;-83
2021/08/25 03:48:56;;;;;;;0.50;0.40;;;10.70;99.90;;;;;;4999458;28;20236;-82
2021/08/25 03:51:22;;;;;;;0.50;0.40;;;10.70;99.90;;;;;;4998776;28;20442;-82
2021/08/25 03:53:49;;;;;;;0.50;0.40;;;10.70;99.90;;;;;;4999846;28;20205;-80
2021/08/25 03:56:16;;;;;;;0.60;0.60;;;10.70;99.90;;;;;;4998838;28;20206;-82
2021/08/25 03:58:42;;;;;;;0.50;0.40;;;10.70;99.90;;;;;;4998842;28;20206;-83
2021/08/25 04:01:09;;;;;;;0.50;0.40;;;10.70;99.90;;;;;;4998766;28;20222;-82
2021/08/25 04:03:37;;;;;;;0.50;0.40;;;10.70;99.90;;;;;;4999110;28;20575;-82
2021/08/25 04:06:04;;;;;;;0.50;0.40;;;10.70;99.90;;;;;;4998826;28;20567;-81
2021/08/25 04:08:31;;;;;;;0.50;0.40;;;10.80;99.90;;;;;;4999391;28;20227;-82
2021/08/25 04:10:58;;;;;;;0.50;0.40;;;10.80;99.90;;;;;;4998794;28;20197;-81
2021/08/25 04:13:24;;;;;;;0.50;0.40;;;10.80;99.90;;;;;;4998656;28;20202;-82
2021/08/25 04:15:51;;;;;;;0.50;0.40;;;10.90;99.90;;;;;;4999107;28;20202;-82
2021/08/25 04:18:18;;;;;;;0.50;0.40;;;10.80;99.90;;;;;;4999558;28;20193;-81
2021/08/25 04:20:46;;;;;;;0.50;0.40;;;10.80;99.90;;;;;;4998949;28;20290;-82
2021/08/25 04:23:13;;;;;;;0.50;0.40;;;10.80;99.90;;;;;;5004827;28;20210;-82
2021/08/25 04:25:41;;;;;;;0.50;0.40;;;10.80;99.90;;;;;;5004112;28;20201;-82
2021/08/25 04:28:08;;;;;;;0.50;0.40;;;10.80;99.90;;;;;;5005037;28;20250;-81
2021/08/25 04:30:35;;;;;;;0.50;0.40;;;10.90;99.90;;;;;;5004758;28;20198;-83
2021/08/25 04:33:02;;;;;;;0.50;0.40;;;10.90;99.90;;;;;;5004914;28;20213;-82
2021/08/25 04:35:29;;;;;;;0.50;0.40;;;10.90;99.90;;;;;;5004247;28;20205;-82
2021/08/25 04:37:57;;;;;;;0.50;0.40;;;10.90;99.90;;;;;;5005313;28;20194;-81
2021/08/25 04:40:24;;;;;;;0.50;0.40;;;11.00;99.90;;;;;;5005472;28;20204;-82
2021/08/25 04:42:50;;;;;;;0.50;0.40;;;10.90;99.90;;;;;;5006616;28;20600;-82
2021/08/25 04:45:17;;;;;;;0.50;0.40;;;10.90;99.90;;;;;;5005381;28;20201;-82
2021/08/25 04:47:44;;;;;;;0.50;0.40;;;10.90;99.90;;;;;;5005498;28;20208;-82
2021/08/25 04:50:11;;;;;;;0.50;0.40;;;11.00;99.90;;;;;;5004497;28;20203;-82
2021/08/25 04:52:38;;;;;;;0.50;0.40;;;11.10;99.90;;;;;;5005171;28;20223;-82
2021/08/25 04:55:07;;;;;;;2.45;2.35;;;11.20;99.90;;;;;;5005788;28;20231;-83
2021/08/25 04:57:34;;;;;;;0.50;0.40;;;11.20;99.90;;;;;;5004304;28;20199;-82
2021/08/25 05:00:01;;;;;;;0.50;0.40;;;11.20;99.90;;;;;;5004470;28;20202;-82
2021/08/25 05:02:28;;;;;;;0.50;0.40;;;11.20;99.90;;;;;;5004762;28;20281;-82
2021/08/25 05:04:55;;;;;;;0.50;0.40;;;11.10;99.90;;;;;;5004966;28;20201;-83
2021/08/25 05:07:21;;;;;;;0.50;0.40;;;11.10;99.90;;;;;;5004842;28;20210;-84
2021/08/25 05:09:48;;;;;;;0.50;0.40;;;11.10;99.90;;;;;;5004877;28;20219;-81
2021/08/25 05:12:18;;;;;;;0.50;0.40;;;11.10;99.90;;;;;;5004717;28;20218;-82
2021/08/25 05:14:45;;;;;;;0.50;0.40;;;11.20;99.90;;;;;;5009813;28;20199;-81
2021/08/25 05:17:11;;;;;;;0.50;0.40;;;11.30;99.90;;;;;;5010538;28;20262;-81
2021/08/25 05:19:38;;;;;;;0.50;0.40;;;11.30;99.90;;;;;;5007893;28;20228;-82
2021/08/25 05:22:06;;;;;;;0.50;0.40;;;11.40;99.90;;;;;;5006290;28;20217;-80
2021/08/25 05:24:33;;;;;;;0.50;0.40;;;11.50;99.90;;;;;;5011356;28;20206;-82
2021/08/25 05:27:00;;;;;;;0.50;0.40;;;11.50;99.90;;;;;;5024849;28;20202;-81
2021/08/25 05:29:28;;;;;;;0.50;0.40;;;11.50;99.90;;;;;;5026326;28;20615;-83
2021/08/25 05:31:55;;;;;;;0.50;0.40;;;11.60;99.90;;;;;;5025432;28;20223;-82
2021/08/25 05:34:22;;;;;;;0.50;0.40;;;11.70;99.90;;;;;;5025592;28;20196;-82
2021/08/25 05:36:48;;;;;;;0.50;0.40;;;11.70;99.90;;;;;;5025208;28;20204;-82
2021/08/25 05:39:15;;;;;;;0.50;0.40;;;11.90;99.90;;;;;;5024188;28;20273;-82
2021/08/25 05:41:42;;;;;;;0.50;0.40;;;12.10;99.90;;;;;;5014814;28;20655;-82
2021/08/25 05:44:09;;;;;;;0.50;0.40;;;12.60;99.90;;;;;;5005739;28;20197;-82
2021/08/25 05:46:37;;;;;;;0.50;0.40;;;13.40;99.90;;;;;;5007095;28;20204;-82
2021/08/25 05:49:04;;;;;;;0.50;0.40;;;14.50;99.90;;;;;;5006487;28;20478;-83
2021/08/25 05:51:31;;;;;;;0.50;0.40;;;15.50;99.90;;;;;;5006594;28;20488;-82
2021/08/25 05:53:57;;;;;;;0.60;0.60;;;16.40;99.90;;;;;;5005709;28;20789;-82
2021/08/25 05:56:24;;;;;;;0.50;0.30;;;17.20;99.90;;;;;;5004709;28;20458;-83
2021/08/25 05:58:51;;;;;;;0.50;0.50;;;18.00;99.90;;;;;;5006031;28;20441;-84
2021/08/25 06:01:18;;;;;;;0.50;0.40;;;18.70;99.90;;;;;;5012960;28;20828;-81
2021/08/25 06:03:46;;;;;;;0.50;0.30;;;19.40;99.90;;;;;;5025316;28;20447;-83
2021/08/25 06:06:13;;;;;;;0.50;0.30;;;19.90;99.90;;;;;;5024608;28;20446;-81
2021/08/25 06:08:40;;;;;;;0.60;0.60;;;20.20;99.90;;;;;;5024586;28;20481;-82
2021/08/25 06:11:08;;;;;;;0.50;0.40;;;20.90;99.90;;;;;;5024924;28;20460;-82
2021/08/25 06:13:34;;;;;;;0.70;0.47;;;21.70;99.90;;;;;;5025366;28;20445;-82
2021/08/25 06:16:01;;;;;;;0.50;0.40;;;22.40;99.90;;;;;;5024693;28;20464;-82
2021/08/25 06:18:28;;;;;;;0.50;0.30;;;23.60;99.90;;;;;;5024926;28;20519;-83
2021/08/25 06:20:56;;;;;;;0.50;0.30;;;24.60;99.90;;;;;;5023572;28;20500;-82
2021/08/25 06:23:23;;;;;;;0.50;0.30;;;25.50;98.80;;;;;;5024715;28;20458;-83
2021/08/25 06:25:50;;;;;;;4.40;2.27;;;26.30;91.00;;;;;;5024957;28;20512;-83
2021/08/25 06:28:17;;;;;;;1.23;1.23;;;27.00;88.40;;;;;;5024911;28;20844;-82
2021/08/25 06:30:44;;;;;;;0.50;0.30;;;27.50;81.10;;;;;;5025012;28;20441;-83
2021/08/25 06:33:11;;;;;;;0.50;0.30;;;27.90;78.00;;;;;;5025049;28;20523;-84
2021/08/25 06:35:38;;;;;;;0.50;0.30;;;28.40;74.60;;;;;;5025617;28;20505;-84
2021/08/25 06:38:06;;;;;;;0.50;0.30;;;28.50;73.50;;;;;;5024567;28;20449;-81
2021/08/25 06:40:33;;;;;;;0.50;0.30;;;28.90;71.40;;;;;;5023138;28;20460;-82
2021/08/25 06:43:00;;;;;;;0.50;0.30;;;28.80;69.70;;;;;;5023782;28;20456;-79
2021/08/25 06:45:27;;;;;;;0.50;0.40;;;28.60;68.90;;;;;;5024501;28;20437;-81
2021/08/25 06:47:53;;;;;;;0.50;0.30;;;28.60;68.30;;;;;;5025309;28;20474;-82
2021/08/25 06:50:20;;;;;;;0.50;0.30;;;28.40;69.20;;;;;;5023743;28;21002;-82
2021/08/25 06:52:47;;;;;;;0.50;0.30;;;28.50;68.60;;;;;;5024055;28;20471;-82
2021/08/25 06:55:15;;;;;;;0.50;0.30;;;28.80;68.60;;;;;;5025362;28;20845;-82
2021/08/25 06:57:42;;;;;;;0.50;0.30;;;29.60;67.50;;;;;;5026295;28;20516;-83
2021/08/25 07:00:09;;;;;;;0.50;0.30;;;30.60;68.80;;;;;;5029438;28;20432;-81
2021/08/25 07:02:36;;;;;;;0.50;0.30;;;31.30;62.20;;;;;;5028156;28;20472;-83
2021/08/25 07:05:05;;;;;;;0.50;0.30;;;31.00;61.20;;;;;;5025996;28;20445;-83
2021/08/25 07:07:32;;;;;;;0.50;0.30;;;31.60;61.90;;;;;;5009090;28;20474;-84
2021/08/25 07:09:59;;;;;;;0.50;0.30;;;32.30;59.60;;;;;;5026088;28;20480;-82
2021/08/25 07:12:27;;;;;;;0.50;0.30;;;31.90;57.70;;;;;;5026584;28;20469;-84
2021/08/25 07:14:54;;;;;;;0.50;0.30;;;32.00;58.00;;;;;;5025715;28;20440;-81
2021/08/25 07:17:21;;;;;;;0.50;0.30;;;32.20;57.30;;;;;;5026340;28;20445;-84
2021/08/25 07:19:48;;;;;;;0.50;0.30;;;33.10;58.70;;;;;;5028137;28;20493;-84
2021/08/25 07:22:15;;;;;;;0.50;0.30;;;34.00;57.00;;;;;;5025498;28;20455;-83
2021/08/25 07:24:41;;;;;;;0.50;0.30;;;34.30;54.20;;;;;;5026115;28;20463;-84
2021/08/25 07:27:08;;;;;;;1.00;0.90;;;34.60;53.90;;;;;;5025947;28;20450;-84
2021/08/25 07:29:36;;;;;;;0.50;0.30;;;34.80;53.20;;;;;;5026731;28;20487;-84
2021/08/25 07:32:04;;;;;;;0.50;0.30;;;34.70;53.40;;;;;;5026610;28;20464;-83
2021/08/25 07:34:30;;;;;;;0.50;0.30;;;35.00;52.20;;;;;;5026591;28;20452;-84
2021/08/25 07:36:57;;;;;;;0.50;0.30;;;36.00;52.20;;;;;;5027392;28;20792;-81
2021/08/25 07:39:24;;;;;;;0.40;0.30;;;36.70;52.80;;;;;;5026926;28;20537;-84
2021/08/25 07:41:51;;;;;;;0.80;0.80;;;36.60;49.60;;;;;;5026732;28;20903;-83
2021/08/25 07:44:18;;;;;;;0.40;0.30;;;36.60;50.10;;;;;;5026025;28;20447;-83
2021/08/25 07:46:46;;;;;;;0.40;0.30;;;37.40;50.30;;;;;;5027443;28;20517;-85
2021/08/25 07:49:13;;;;;;;0.40;0.30;;;38.20;49.30;;;;;;5026572;28;20478;-85
2021/08/25 07:51:40;;;;;;;0.40;0.40;;;38.20;48.00;;;;;;5026244;28;20470;-84
2021/08/25 07:54:07;;;;;;;0.40;0.30;;;38.80;48.60;;;;;;5026504;28;20446;-84
2021/08/25 07:56:34;;;;;;;0.40;0.30;;;39.30;48.00;;;;;;5025837;28;20445;-84
2021/08/25 07:59:00;;;;;;;0.40;0.30;;;39.60;46.70;;;;;;5027564;28;20438;-83
2021/08/25 08:01:28;;;;;;;0.40;0.30;;;39.90;44.60;;;;;;5025995;28;20471;-82
2021/08/25 08:03:56;;;;;;;0.40;0.30;;;40.10;44.90;;;;;;5028736;28;20455;-81
2021/08/25 08:06:23;;;;;;;0.40;0.30;;;39.90;44.60;;;;;;5029990;28;20492;-84
2021/08/25 08:08:50;;;;;;;0.40;0.30;;;40.40;44.60;;;;;;5031036;28;20498;-84
2021/08/25 08:11:17;;;;;;;1.43;1.33;;;40.00;44.30;;;;;;5029544;28;20471;-84
2021/08/25 08:13:44;;;;;;;0.40;0.30;;;40.40;45.10;;;;;;5029916;28;20451;-84
2021/08/25 08:16:16;;;;;;;0.50;0.43;;;40.90;43.10;;;;;;5030468;28;20438;-85
2021/08/25 08:18:54;;;;;;;0.40;0.30;;;40.50;43.80;;;;;;5030123;28;20427;-84
2021/08/25 08:21:23;;;;;;;0.50;0.50;;;40.10;43.60;;;;;;5028771;28;20832;-84
2021/08/25 08:23:50;;;;;;;0.40;0.30;;;40.60;44.00;;;;;;5030007;28;20512;-85
2021/08/25 08:26:17;;;;;;;0.50;0.40;;;41.20;42.90;;;;;;5029784;28;20464;-82
2021/08/25 08:28:44;;;;;;;0.40;0.30;;;41.20;42.50;;;;;;5030250;28;20445;-84
2021/08/25 08:31:11;;;;;;;0.70;0.70;;;41.50;43.00;;;;;;5028573;28;20477;-83
2021/08/25 08:33:38;;;;;;;0.40;0.40;;;41.80;43.00;;;;;;5028125;28;20439;-83
2021/08/25 08:36:06;;;;;;;0.50;0.47;;;42.00;42.60;;;;;;5028949;28;20445;-84
2021/08/25 08:38:34;;;;;;;3.23;1.40;;;42.50;42.30;;;;;;5028448;28;20807;-83
2021/08/25 08:41:01;;;;;;;0.40;0.30;;;42.70;41.70;;;;;;5028146;28;20481;-80
2021/08/25 08:43:28;;;;;;;0.40;0.30;;;42.90;41.80;;;;;;5029016;28;20445;-84
2021/08/25 08:45:54;;;;;;;0.40;0.30;;;42.90;42.00;;;;;;5029199;28;20435;-81
2021/08/25 08:48:23;;;;;;;0.40;0.30;;;41.50;42.10;;;;;;5028555;28;20435;-82
2021/08/25 08:50:49;;;;;;;0.40;0.30;;;41.10;42.90;;;;;;5027424;28;20439;-82
2021/08/25 08:53:18;;;;;;;0.40;0.30;;;41.00;43.10;;;;;;5028836;28;20447;-82
2021/08/25 08:55:46;;;;;;;0.40;0.30;;;40.50;42.70;;;;;;5029255;28;20421;-82
2021/08/25 08:58:13;;;;;;;0.40;0.30;;;40.40;44.50;;;;;;5028757;28;20448;-82
2021/08/25 09:00:40;;;;;;;0.40;0.30;;;40.30;43.80;;;;;;5028630;28;20495;-83
2021/08/25 09:03:22;;;;;;;0.40;0.30;;;40.60;42.30;;;;;;5028900;28;20474;-83
2021/08/25 09:05:54;;;;;;;0.40;0.30;;;40.30;42.00;;;;;;5029696;28;20427;-83
2021/08/25 09:08:25;;;;;;;0.40;0.30;;;40.50;43.70;;;;;;5029177;28;20453;-83
2021/08/25 09:11:01;;;;;;;0.40;0.30;;;40.60;43.30;;;;;;5029846;28;20436;-81
2021/08/25 09:13:34;;;;;;;0.50;0.40;;;40.40;41.70;;;;;;5028512;28;20445;-83
2021/08/25 09:16:01;;;;;;;0.50;0.50;;;40.10;41.60;;;;;;5028678;28;20447;-83
2021/08/25 09:18:28;;;;;;;0.40;0.30;;;38.90;42.40;;;;;;5029227;28;20510;-83
2021/08/25 09:20:55;;;;;;;0.40;0.30;;;38.30;43.00;;;;;;5029092;28;20472;-83
2021/08/25 09:23:24;;;;;;;0.40;0.30;;;38.20;43.40;;;;;;5030053;28;20454;-83
2021/08/25 09:25:53;;;;;;;0.40;0.30;;;38.20;42.80;;;;;;5031766;28;20455;-82
2021/08/25 09:28:29;;;;;;;0.40;0.30;;;38.10;43.40;;;;;;5031164;28;20456;-82
2021/08/25 09:31:04;;;;;;;0.40;0.30;;;38.60;45.00;;;;;;5031043;28;20444;-83
2021/08/25 09:33:33;;;;;;;0.40;0.30;;;39.20;43.20;;;;;;5031595;28;20426;-82
2021/08/25 09:36:03;;;;;;;0.40;0.30;;;39.60;42.10;;;;;;5030766;28;20443;-82
2021/08/25 09:38:32;;;;;;;0.40;0.30;;;40.40;40.80;;;;;;5030387;28;20517;-82
2021/08/25 09:41:04;;;;;;;0.67;0.50;;;41.10;42.20;;;;;;5029402;28;20478;-84
2021/08/25 09:43:40;;;;;;;2.10;0.97;;;41.50;40.50;;;;;;5031042;28;20619;-82
2021/08/25 09:46:16;;;;;;;0.40;0.30;;;41.50;39.70;;;;;;5030706;28;20463;-83
2021/08/25 09:48:45;;;;;;;0.40;0.30;;;41.50;42.20;;;;;;5030762;28;20467;-83
2021/08/25 09:51:13;;;;;;;0.40;0.30;;;42.20;39.30;;;;;;5030418;28;20455;-82
2021/08/25 09:53:41;;;;;;;0.40;0.30;;;42.40;38.90;;;;;;5030977;28;20443;-83
2021/08/25 09:56:27;;;;;;;0.40;0.30;;;42.70;40.10;;;;;;5031478;28;20439;-83
2021/08/25 09:58:56;;;;;;;0.40;0.30;;;42.20;39.50;;;;;;5031080;28;20442;-82
2021/08/25 10:01:23;;;;;;;0.40;0.30;;;42.10;40.40;;;;;;5029915;28;20479;-83
2021/08/25 10:03:50;;;;;;;0.40;0.30;;;42.10;39.90;;;;;;5028181;28;20439;-83
2021/08/25 10:06:18;;;;;;;0.40;0.30;;;42.00;41.10;;;;;;5028048;28;20443;-83
2021/08/25 10:08:45;;;;;;;0.40;0.30;;;41.90;38.40;;;;;;5028607;28;20957;-83
2021/08/25 10:11:14;;;;;;;0.40;0.40;;;41.40;39.30;;;;;;5027836;28;20458;-83
2021/08/25 10:13:42;;;;;;;2.60;1.80;;;41.20;40.40;;;;;;5028382;28;20443;-84
2021/08/25 10:16:14;;;;;;;0.40;0.30;;;40.80;40.60;;;;;;5028819;28;20451;-83
2021/08/25 10:18:41;;;;;;;1.17;1.07;;;39.80;41.30;;;;;;5028062;28;20473;-83
2021/08/25 10:21:43;;;;;;;0.40;0.30;;;39.40;40.00;;;;;;5027704;28;20483;-83
2021/08/25 10:24:10;;;;;;;0.40;0.30;;;38.40;41.10;;;;;;5027697;28;20438;-83
2021/08/25 10:27:08;;;;;;;0.40;0.30;;;38.50;41.30;;;;;;5027948;28;20511;-82
2021/08/25 10:30:08;;;;;;;0.40;0.30;;;39.00;41.60;;;;;;5026797;28;20460;-83
2021/08/25 10:32:38;;;;;;;0.40;0.30;;;39.60;41.60;;;;;;5028771;28;20499;-83
2021/08/25 10:35:22;;;;;;;0.60;0.53;;;39.00;41.70;;;;;;5030565;28;20439;-83
2021/08/25 10:37:50;;;;;;;0.40;0.30;;;39.90;41.40;;;;;;5028850;28;20407;-82
2021/08/25 10:40:32;;;;;;;0.40;0.30;;;39.70;39.40;;;;;;5027685;28;20489;-81
2021/08/25 10:43:01;;;;;;;0.40;0.30;;;39.50;41.90;;;;;;5025400;28;20492;-83
2021/08/25 10:45:56;;;;;;;0.80;0.80;;;40.10;41.20;;;;;;5027512;28;20450;-83
2021/08/25 10:48:48;;;;;;;0.40;0.30;;;40.80;40.10;;;;;;5028462;28;20430;-83
2021/08/25 10:51:33;;;;;;;0.40;0.30;;;41.80;40.90;;;;;;5029444;28;20456;-83
2021/08/25 10:54:01;;;;;;;0.40;0.30;;;42.40;40.20;;;;;;5028379;28;20525;-83
2021/08/25 10:56:30;;;;;;;0.40;0.30;;;41.40;38.70;;;;;;5027526;28;20518;-82
2021/08/25 10:59:03;;;;;;;0.40;0.30;;;40.30;38.80;;;;;;5028167;28;20441;-83
2021/08/25 11:01:31;;;;;;;0.60;0.50;;;40.00;38.70;;;;;;5027288;28;20479;-82
2021/08/25 11:04:00;;;;;;;0.40;0.30;;;40.20;38.30;;;;;;5028752;28;20448;-82
2021/08/25 11:06:32;;;;;;;0.40;0.30;;;39.80;39.50;;;;;;5029156;28;20445;-82
2021/08/25 11:09:27;;;;;;;0.83;0.83;;;39.80;40.80;;;;;;5026992;28;20491;-83
2021/08/25 11:11:57;;;;;;;0.40;0.30;;;39.00;41.90;;;;;;4967214;29;20521;-82
2021/08/25 11:14:32;;;;;;;0.87;0.50;;;39.30;40.00;;;;;;4966624;29;20441;-82
2021/08/25 11:17:04;;;;;;;0.40;0.30;;;39.20;40.70;;;;;;4967318;29;20422;-81
2021/08/25 11:19:34;;;;;;;0.50;0.40;;;38.80;39.70;;;;;;4966926;29;20477;-82
2021/08/25 11:22:01;;;;;;;0.40;0.30;;;38.50;38.80;;;;;;4963445;29;20469;-81
2021/08/25 11:24:33;;;;;;;0.40;0.30;;;37.40;42.10;;;;;;4964759;29;20470;-82
2021/08/25 11:26:59;;;;;;;0.40;0.30;;;37.60;42.50;;;;;;4964202;29;20434;-81
2021/08/25 11:29:26;;;;;;;0.40;0.30;;;37.40;42.50;;;;;;4962766;29;20445;-83
2021/08/25 11:31:53;;;;;;;0.40;0.30;;;38.00;43.20;;;;;;4962914;29;20454;-81
2021/08/25 11:34:22;;;;;;;0.60;0.60;;;39.10;42.20;;;;;;4971854;29;20492;-82
2021/08/25 11:36:54;;;;;;;0.60;0.40;;;39.70;41.10;;;;;;4965801;28;20436;-83
2021/08/25 11:39:21;;;;;;;0.60;0.30;;;39.90;39.90;;;;;;4969829;29;20440;-83
2021/08/25 11:41:50;;;;;;;0.40;0.30;;;39.80;41.10;;;;;;4969233;29;20888;-83
2021/08/25 11:44:42;;;;;;;0.40;0.30;;;40.30;40.70;;;;;;4970965;29;20452;-83
2021/08/25 11:47:17;;;;;;;0.50;0.50;;;40.10;40.00;;;;;;4988355;28;20449;-83
2021/08/25 11:49:46;;;;;;;0.40;0.30;;;38.70;40.70;;;;;;5029939;28;20502;-84
2021/08/25 11:52:15;;;;;;;0.40;0.30;;;39.10;41.30;;;;;;5030501;28;20465;-83
2021/08/25 11:54:43;;;;;;;0.40;0.30;;;39.20;40.80;;;;;;5029995;28;20444;-83
2021/08/25 11:57:11;;;;;;;0.40;0.30;;;39.30;41.90;;;;;;5029623;28;20470;-83
2021/08/25 11:59:54;;;;;;;0.40;0.30;;;39.50;40.70;;;;;;5030324;28;20445;-83
2021/08/25 12:02:20;;;;;;;0.40;0.30;;;39.20;39.90;;;;;;5029998;28;20507;-82
2021/08/25 12:04:47;;;;;;;0.40;0.30;;;39.30;40.80;;;;;;5030464;28;20450;-83
2021/08/25 12:07:17;;;;;;;0.50;0.47;;;40.00;42.60;;;;;;5030817;28;20453;-83
2021/08/25 12:09:45;;;;;;;0.40;0.30;;;40.30;41.30;;;;;;5030440;28;20449;-83
2021/08/25 12:12:12;;;;;;;0.40;0.30;;;40.00;41.40;;;;;;5029221;28;20458;-82
2021/08/25 12:14:56;;;;;;;0.40;0.30;;;39.10;42.70;;;;;;5029524;28;20441;-83
2021/08/25 12:17:23;;;;;;;0.40;0.30;;;39.30;43.50;;;;;;5030705;28;20438;-83
2021/08/25 12:19:58;;;;;;;0.40;0.30;;;40.00;42.60;;;;;;5029644;28;20450;-84
2021/08/25 12:22:29;;;;;;;0.40;0.40;;;40.10;41.40;;;;;;5029969;28;20502;-83
2021/08/25 12:24:58;;;;;;;0.40;0.30;;;40.40;41.80;;;;;;5029281;28;20445;-80
2021/08/25 12:27:25;;;;;;;0.40;0.30;;;40.60;40.00;;;;;;5029833;28;20677;-83
2021/08/25 12:29:52;;;;;;;0.50;0.40;;;40.00;40.30;;;;;;5029568;28;20446;-84
2021/08/25 12:32:19;;;;;;;0.40;0.30;;;40.00;41.20;;;;;;5029381;28;20461;-84
2021/08/25 12:35:00;;;;;;;0.40;0.30;;;39.70;40.10;;;;;;5028999;28;20442;-83
2021/08/25 12:37:51;;;;;;;0.53;0.53;;;39.50;40.90;;;;;;5029861;28;20437;-83
2021/08/25 12:40:20;;;;;;;0.40;0.30;;;39.30;41.70;;;;;;5028446;28;21026;-83
2021/08/25 12:42:48;;;;;;;0.40;0.30;;;39.00;41.80;;;;;;5029351;28;20455;-83
2021/08/25 12:45:15;;;;;;;0.40;0.30;;;38.80;41.10;;;;;;5029355;28;20437;-82
2021/08/25 12:47:41;;;;;;;0.40;0.30;;;39.00;40.50;;;;;;5028763;28;20449;-83
2021/08/25 12:50:09;;;;;;;0.40;0.30;;;39.00;41.80;;;;;;5027742;28;20446;-81
2021/08/25 12:52:36;;;;;;;0.40;0.30;;;38.80;42.50;;;;;;5028401;28;20463;-82
2021/08/25 12:55:08;;;;;;;0.50;0.30;;;37.90;41.90;;;;;;5028576;28;20446;-83
2021/08/25 12:57:35;;;;;;;0.50;0.30;;;35.50;41.70;;;;;;5027266;28;20513;-82